In Rescue
 
Open Full Screen Window  High Contrast Mode
November 25, 2020 6:42 AM EST
Present Weather: Mist
Weather Information
Wind Direction
  ---
Wind Speed
  00 kt (0 mph)
Wind Gust
  00 kt (0 mph)
Altimeter
29.91 in
Visibility
1 1/4 SM
Temperature
03° C
37° F
Dewpoint
03° C
37° F
Humidity
100%
Sky Condition
Overcast @ 3,500 ft
Broken @ 1,700 ft
Broken @ 600 ft
IFR

METAR KAMN 251142Z AUTO 00000KT 1 1/4SM BR BKN006 BKN017 OVC035 03/03 A2991 RMK AO2 T00280028

FAA Disclaimer: The data displayed is for advisory purposes only and is not to be used for flight planning or operations.